createdAt,value
2022-09-07T00:00:53.273Z,55.58
2022-09-07T00:03:21.717Z,56.32
2022-09-07T00:05:51.633Z,56.09
2022-09-07T00:08:24.723Z,56.24
2022-09-07T00:10:58.322Z,56.52
2022-09-07T00:13:29.071Z,56.82
2022-09-07T00:15:56.843Z,56.84
2022-09-07T00:18:24.608Z,56.70
2022-09-07T00:21:00.400Z,56.89
2022-09-07T00:23:29.487Z,57.16
2022-09-07T00:26:19.461Z,57.07
2022-09-07T00:28:47.852Z,56.58
2022-09-07T00:31:21.907Z,57.28
2022-09-07T00:33:51.140Z,56.64
2022-09-07T00:36:20.348Z,57.00
2022-09-07T00:38:47.984Z,57.07
2022-09-07T00:41:16.592Z,57.13
2022-09-07T00:43:54.474Z,56.81
2022-09-07T00:46:28.632Z,57.41
2022-09-07T00:49:16.764Z,57.06
2022-09-07T00:51:53.115Z,57.44
2022-09-07T00:54:25.983Z,57.67
2022-09-07T00:56:54.357Z,57.01
2022-09-07T00:59:28.191Z,57.68
2022-09-07T01:01:55.555Z,57.69
2022-09-07T01:04:23.824Z,57.65
2022-09-07T01:06:51.521Z,57.75
2022-09-07T01:09:23.038Z,58.17
2022-09-07T01:11:52.140Z,57.61
2022-09-07T01:14:29.312Z,58.12
2022-09-07T01:17:39.324Z,57.88
2022-09-07T01:20:50.703Z,57.68
2022-09-07T01:23:44.952Z,57.64
2022-09-07T01:26:33.121Z,57.86
2022-09-07T01:29:20.993Z,58.10
2022-09-07T01:32:14.059Z,57.82
2022-09-07T01:34:44.351Z,58.15
2022-09-07T01:37:37.812Z,57.97
2022-09-07T01:40:20.977Z,57.87
2022-09-07T01:43:02.549Z,58.30
2022-09-07T01:45:35.913Z,58.05
2022-09-07T01:48:09.404Z,58.49
2022-09-07T01:50:58.084Z,58.27
2022-09-07T01:53:54.039Z,58.29
2022-09-07T01:56:47.446Z,57.99
2022-09-07T01:59:29.729Z,58.18
2022-09-07T02:02:16.654Z,58.16
2022-09-07T02:05:09.744Z,58.42
2022-09-07T02:07:46.772Z,58.67
2022-09-07T02:10:21.540Z,58.21
2022-09-07T02:13:02.146Z,58.55
2022-09-07T02:15:56.311Z,58.63
2022-09-07T02:18:26.858Z,58.74
2022-09-07T02:20:57.869Z,58.56
2022-09-07T02:23:32.985Z,58.73
2022-09-07T02:26:07.992Z,58.67
2022-09-07T02:28:38.411Z,58.92
2022-09-07T02:31:06.305Z,58.66
2022-09-07T02:33:34.107Z,59.03
2022-09-07T02:36:04.427Z,58.55
2022-09-07T02:38:33.659Z,58.46
2022-09-07T02:41:03.240Z,58.59
2022-09-07T02:43:32.044Z,59.11
2022-09-07T02:46:22.255Z,59.13
2022-09-07T02:49:24.108Z,58.90
2022-09-07T02:52:30.714Z,58.90
2022-09-07T02:55:34.979Z,59.14
2022-09-07T02:58:32.731Z,58.69
2022-09-07T03:01:19.125Z,59.53
2022-09-07T03:04:14.853Z,59.39
2022-09-07T03:07:03.785Z,59.62
2022-09-07T03:09:41.555Z,59.75
2022-09-07T03:12:09.822Z,59.58
2022-09-07T03:14:41.277Z,59.73
2022-09-07T03:17:09.484Z,59.87
2022-09-07T03:19:37.120Z,59.89
2022-09-07T03:22:05.628Z,59.88
2022-09-07T03:24:32.692Z,60.04
2022-09-07T03:27:00.631Z,59.51
2022-09-07T03:29:28.177Z,59.87
2022-09-07T03:31:55.298Z,59.79
2022-09-07T03:34:25.269Z,60.05
2022-09-07T03:36:52.639Z,59.97
2022-09-07T03:39:22.625Z,60.41
2022-09-07T03:41:50.643Z,59.91
2022-09-07T03:44:17.560Z,60.46
2022-09-07T03:46:44.677Z,60.41
2022-09-07T03:49:11.879Z,60.17
2022-09-07T03:51:39.621Z,60.57
2022-09-07T03:54:07.127Z,60.69
2022-09-07T03:56:34.484Z,60.22
2022-09-07T03:59:01.925Z,60.26
2022-09-07T04:01:29.409Z,60.42
2022-09-07T04:04:02.802Z,60.53
2022-09-07T04:06:30.601Z,60.44
2022-09-07T04:09:02.010Z,60.48
2022-09-07T04:11:29.012Z,60.44
2022-09-07T04:13:56.030Z,60.41
2022-09-07T04:16:26.366Z,60.77
2022-09-07T04:18:58.908Z,60.92
2022-09-07T04:21:28.216Z,60.91
2022-09-07T04:23:55.723Z,60.70
2022-09-07T04:26:36.207Z,60.80
2022-09-07T04:29:04.706Z,60.68
2022-09-07T04:31:34.748Z,60.97
2022-09-07T04:34:03.175Z,61.14
2022-09-07T04:36:30.318Z,60.98
2022-09-07T04:39:03.911Z,60.90
2022-09-07T04:41:33.361Z,61.20
2022-09-07T04:44:03.336Z,60.97
2022-09-07T04:46:36.107Z,61.21
2022-09-07T04:49:08.364Z,61.20
2022-09-07T04:51:36.492Z,60.73
2022-09-07T04:54:04.637Z,60.96
2022-09-07T04:56:32.922Z,61.21
2022-09-07T04:59:01.747Z,61.39
2022-09-07T05:01:29.566Z,61.31
2022-09-07T05:04:00.173Z,61.42
2022-09-07T05:06:27.483Z,61.50
2022-09-07T05:08:55.242Z,61.32
2022-09-07T05:11:28.684Z,61.50
2022-09-07T05:13:58.290Z,61.37
2022-09-07T05:16:26.105Z,61.73
2022-09-07T05:19:02.048Z,61.72
2022-09-07T05:21:32.781Z,61.53
2022-09-07T05:24:01.488Z,61.92
2022-09-07T05:26:33.159Z,62.23
2022-09-07T05:31:51.866Z,61.90
2022-09-07T05:34:34.526Z,62.20
2022-09-07T05:37:02.208Z,62.01
2022-09-07T05:39:30.378Z,62.44
2022-09-07T05:41:59.832Z,62.45
2022-09-07T05:47:09.222Z,62.78
2022-09-07T05:49:36.284Z,62.48
2022-09-07T05:52:03.929Z,62.82
2022-09-07T05:54:30.923Z,62.42
2022-09-07T05:56:58.478Z,62.37
2022-09-07T05:59:25.560Z,62.56
2022-09-07T06:01:52.644Z,62.61
2022-09-07T06:04:19.804Z,62.56
2022-09-07T06:06:59.310Z,62.52
2022-09-07T06:09:34.395Z,62.84
2022-09-07T06:12:05.264Z,63.08
2022-09-07T06:14:33.555Z,62.78
2022-09-07T06:17:00.776Z,62.92
2022-09-07T06:19:27.973Z,62.47
2022-09-07T06:21:54.974Z,62.40
2022-09-07T06:24:22.123Z,62.82
2022-09-07T06:26:49.173Z,62.35
2022-09-07T06:29:17.552Z,62.25
2022-09-07T06:34:31.853Z,62.36
2022-09-07T06:36:59.097Z,62.65
2022-09-07T06:39:26.247Z,62.60
2022-09-07T06:42:00.491Z,62.95
2022-09-07T06:44:31.489Z,63.00
2022-09-07T06:49:29.041Z,62.85
2022-09-07T06:51:56.136Z,62.91
2022-09-07T06:57:10.304Z,62.78
2022-09-07T06:59:38.147Z,62.27
2022-09-07T07:02:07.078Z,61.96
2022-09-07T07:04:39.357Z,62.17
2022-09-07T07:07:12.107Z,61.90
2022-09-07T07:09:39.700Z,62.04
2022-09-07T07:12:06.828Z,61.74
2022-09-07T07:14:36.433Z,62.20
2022-09-07T07:17:05.904Z,61.46
2022-09-07T07:19:33.041Z,61.81
2022-09-07T07:22:36.008Z,62.25
2022-09-07T07:24:47.563Z,61.71
2022-09-07T07:27:14.693Z,61.95
2022-09-07T07:29:41.760Z,61.46
2022-09-07T07:32:08.660Z,61.82
2022-09-07T07:34:35.720Z,61.65
2022-09-07T07:37:02.859Z,61.62
2022-09-07T07:42:16.959Z,61.21
2022-09-07T07:44:43.980Z,61.34
2022-09-07T07:47:11.058Z,60.60
2022-09-07T07:49:38.459Z,61.00
2022-09-07T07:54:53.340Z,60.47
2022-09-07T07:57:20.516Z,60.32
2022-09-07T07:59:47.426Z,60.34
2022-09-07T08:02:17.034Z,60.25
2022-09-07T08:04:44.435Z,60.40
2022-09-07T08:07:15.855Z,60.06
2022-09-07T08:09:46.601Z,60.27
2022-09-07T08:12:20.066Z,60.54
2022-09-07T08:14:48.442Z,60.72
2022-09-07T08:17:17.639Z,61.03
2022-09-07T08:19:45.346Z,60.71
2022-09-07T08:22:13.036Z,60.62
2022-09-07T08:24:40.476Z,60.39
2022-09-07T08:27:08.014Z,60.78
2022-09-07T08:29:35.720Z,60.60
2022-09-07T08:32:06.439Z,60.66
2022-09-07T08:34:36.704Z,60.44
2022-09-07T08:37:04.205Z,60.40
2022-09-07T08:39:31.240Z,60.55
2022-09-07T08:42:06.036Z,60.55
2022-09-07T08:44:45.997Z,60.37
2022-09-07T08:47:43.671Z,60.32
2022-09-07T08:50:59.858Z,60.41
2022-09-07T08:53:29.067Z,60.61
2022-09-07T08:56:05.049Z,60.18
2022-09-07T08:58:49.088Z,60.14
2022-09-07T09:01:42.330Z,59.87
2022-09-07T09:05:16.300Z,59.97
2022-09-07T09:08:09.937Z,59.69
2022-09-07T09:10:53.474Z,59.54
2022-09-07T09:13:47.920Z,59.20
2022-09-07T09:16:36.160Z,59.20
2022-09-07T09:19:39.432Z,59.12
2022-09-07T09:22:21.327Z,58.61
2022-09-07T09:24:53.708Z,58.90
2022-09-07T09:27:20.693Z,58.70
2022-09-07T09:29:48.537Z,58.66
2022-09-07T09:32:41.790Z,58.44
2022-09-07T09:35:29.885Z,58.45
2022-09-07T09:37:57.813Z,58.34
2022-09-07T09:40:30.957Z,57.48
2022-09-07T09:43:18.257Z,57.27
2022-09-07T09:48:40.504Z,57.29
2022-09-07T09:54:07.641Z,56.41
2022-09-07T09:56:44.766Z,55.97
2022-09-07T10:05:43.336Z,55.84
2022-09-07T10:08:24.663Z,54.63
2022-09-07T10:11:00.645Z,54.43
2022-09-07T10:13:31.940Z,54.71
2022-09-07T10:16:03.763Z,54.37
2022-09-07T10:18:55.479Z,53.77
2022-09-07T10:21:26.217Z,53.92
2022-09-07T10:23:59.436Z,53.05
2022-09-07T10:26:36.569Z,52.81
2022-09-07T10:29:24.813Z,53.34
2022-09-07T10:32:22.394Z,52.88
2022-09-07T10:34:56.375Z,52.52
2022-09-07T10:38:02.596Z,52.41
2022-09-07T10:40:58.336Z,52.19
2022-09-07T10:43:58.406Z,51.49
2022-09-07T10:46:57.837Z,51.51
2022-09-07T10:50:21.899Z,50.41
2022-09-07T10:52:48.878Z,50.46
2022-09-07T10:55:26.434Z,49.91
2022-09-07T11:01:35.195Z,50.25
2022-09-07T11:04:31.910Z,50.02
2022-09-07T11:07:33.845Z,49.99
2022-09-07T11:10:25.466Z,50.32
2022-09-07T11:12:58.041Z,49.53
2022-09-07T11:15:31.461Z,49.62
2022-09-07T11:18:03.974Z,49.70
2022-09-07T11:20:45.714Z,49.59
2022-09-07T11:24:11.935Z,49.09
2022-09-07T11:26:56.692Z,49.20
2022-09-07T11:29:48.169Z,48.55
2022-09-07T11:32:23.921Z,47.15
2022-09-07T11:35:01.407Z,46.93
2022-09-07T11:37:51.029Z,46.48
2022-09-07T11:40:49.225Z,46.59
2022-09-07T11:43:25.900Z,45.24
2022-09-07T11:45:58.740Z,45.27
2022-09-07T11:48:45.996Z,44.90
2022-09-07T11:51:40.239Z,44.97
2022-09-07T11:54:33.789Z,43.97
2022-09-07T11:57:39.033Z,43.86
2022-09-07T12:00:38.317Z,42.01
2022-09-07T12:03:26.126Z,42.24
2022-09-07T12:06:22.795Z,42.51
2022-09-07T12:09:11.206Z,42.49
2022-09-07T12:12:10.920Z,41.96
2022-09-07T12:14:50.397Z,40.99
2022-09-07T12:17:43.089Z,40.61
2022-09-07T12:20:19.204Z,40.49
2022-09-07T12:23:04.776Z,40.02
2022-09-07T12:25:34.870Z,40.61
2022-09-07T12:28:02.499Z,40.43
2022-09-07T12:30:30.610Z,39.93
2022-09-07T12:32:58.820Z,38.82
2022-09-07T12:35:39.896Z,38.23
2022-09-07T12:38:18.988Z,37.52
2022-09-07T12:40:49.698Z,37.39
2022-09-07T12:43:16.606Z,37.76
2022-09-07T12:45:43.755Z,38.25
2022-09-07T12:48:16.996Z,37.91
2022-09-07T12:50:53.489Z,39.16
2022-09-07T12:53:39.784Z,39.13
2022-09-07T12:56:38.888Z,39.65
2022-09-07T12:59:18.894Z,41.03
2022-09-07T13:02:04.970Z,41.67
2022-09-07T13:05:02.761Z,42.21
2022-09-07T13:07:39.054Z,41.85
2022-09-07T13:10:41.349Z,41.51
2022-09-07T13:16:15.541Z,43.18
2022-09-07T13:18:44.410Z,44.55
2022-09-07T13:21:12.085Z,44.49
2022-09-07T13:23:45.696Z,45.23
2022-09-07T13:26:51.524Z,45.88
2022-09-07T13:29:24.657Z,46.78
2022-09-07T13:35:23.429Z,54.04
2022-09-07T13:38:03.799Z,55.38
2022-09-07T13:40:39.361Z,57.63
2022-09-07T13:43:15.457Z,59.34
2022-09-07T13:45:54.556Z,59.70
2022-09-07T13:48:27.244Z,61.83
2022-09-07T13:51:00.373Z,63.06
2022-09-07T13:53:43.740Z,63.15
2022-09-07T13:56:23.469Z,63.75
2022-09-07T13:58:53.025Z,64.48
2022-09-07T14:01:26.408Z,64.74
2022-09-07T14:04:07.420Z,65.48
2022-09-07T14:06:37.360Z,65.20
2022-09-07T14:09:14.448Z,65.26
2022-09-07T14:11:54.110Z,65.35
2022-09-07T14:14:26.125Z,65.73
2022-09-07T14:17:10.437Z,65.20
2022-09-07T14:19:41.428Z,65.84
2022-09-07T14:22:17.680Z,65.96
2022-09-07T14:25:01.415Z,65.90
2022-09-07T14:27:43.532Z,66.28
2022-09-07T14:30:33.361Z,66.07
2022-09-07T14:33:13.559Z,66.73
2022-09-07T14:35:41.620Z,66.81
2022-09-07T14:41:15.387Z,68.15
2022-09-07T14:43:57.435Z,68.13
2022-09-07T14:46:35.783Z,68.82
2022-09-07T14:49:18.368Z,68.82
2022-09-07T14:51:48.405Z,68.88
2022-09-07T14:54:34.251Z,69.23
2022-09-07T14:57:32.134Z,69.32
2022-09-07T15:00:30.495Z,69.17
2022-09-07T15:02:57.439Z,70.00
2022-09-07T15:05:29.887Z,69.85
2022-09-07T15:08:02.827Z,69.77
2022-09-07T15:10:36.873Z,69.78
2022-09-07T15:13:20.206Z,69.85
2022-09-07T15:16:02.429Z,69.42
2022-09-07T15:19:05.602Z,69.55
2022-09-07T15:21:36.538Z,70.26
2022-09-07T15:24:04.577Z,70.02
2022-09-07T15:29:29.386Z,69.98
2022-09-07T15:32:03.258Z,70.13
2022-09-07T15:34:32.228Z,69.80
2022-09-07T15:37:00.224Z,70.27
2022-09-07T15:39:34.388Z,69.93
2022-09-07T15:42:59.514Z,69.86
2022-09-07T15:44:50.402Z,70.39
2022-09-07T15:50:08.930Z,69.86
2022-09-07T15:52:35.949Z,70.28
2022-09-07T15:55:03.416Z,70.54
2022-09-07T16:00:19.514Z,70.50
2022-09-07T16:03:05.658Z,70.19
2022-09-07T16:05:34.738Z,70.47
2022-09-07T16:10:55.363Z,70.05
2022-09-07T16:13:24.256Z,70.25
2022-09-07T16:15:51.862Z,70.19
2022-09-07T16:18:19.506Z,70.07
2022-09-07T16:20:47.946Z,70.73
2022-09-07T16:23:19.642Z,70.70
2022-09-07T16:25:59.573Z,70.32
2022-09-07T16:28:27.373Z,70.96
2022-09-07T16:30:56.226Z,70.91
2022-09-07T16:33:31.568Z,71.08
2022-09-07T16:36:12.021Z,70.85
2022-09-07T16:38:44.843Z,71.48
2022-09-07T16:41:19.998Z,70.94
2022-09-07T16:43:47.383Z,71.07
2022-09-07T16:46:18.744Z,71.20
2022-09-07T16:48:45.842Z,70.87
2022-09-07T16:51:16.553Z,71.28
2022-09-07T16:53:43.933Z,70.85
2022-09-07T16:56:17.523Z,70.35
2022-09-07T16:58:51.355Z,69.93
2022-09-07T17:01:21.838Z,69.92
2022-09-07T17:03:49.883Z,69.87
2022-09-07T17:06:19.210Z,70.06
2022-09-07T17:08:47.187Z,69.79
2022-09-07T17:11:21.883Z,69.88
2022-09-07T17:13:49.517Z,70.10
2022-09-07T17:16:24.203Z,69.71
2022-09-07T17:21:41.789Z,69.76
2022-09-07T17:24:11.035Z,70.02
2022-09-07T17:26:38.644Z,69.70
2022-09-07T17:29:07.315Z,70.06
2022-09-07T17:34:25.438Z,70.17
2022-09-07T17:36:52.434Z,70.30
2022-09-07T17:39:20.161Z,70.19
2022-09-07T17:41:52.570Z,70.42
2022-09-07T17:44:21.559Z,70.25
2022-09-07T17:46:48.762Z,70.16
2022-09-07T17:49:17.005Z,70.28
2022-09-07T17:51:44.828Z,70.28
2022-09-07T17:54:15.566Z,70.30
2022-09-07T17:56:42.809Z,70.56
2022-09-07T18:01:58.965Z,70.46
2022-09-07T18:04:26.263Z,70.73
2022-09-07T18:06:54.493Z,71.18
2022-09-07T18:09:22.046Z,70.81
2022-09-07T18:11:50.378Z,70.93
2022-09-07T18:14:19.364Z,70.52
2022-09-07T18:16:49.348Z,70.97
2022-09-07T18:19:16.925Z,70.87
2022-09-07T18:21:45.114Z,70.66
2022-09-07T18:24:22.178Z,71.03
2022-09-07T18:26:52.808Z,71.34
2022-09-07T18:29:29.241Z,70.94
2022-09-07T18:31:58.900Z,71.17
2022-09-07T18:34:26.536Z,71.42
2022-09-07T18:36:55.226Z,71.41
2022-09-07T18:39:22.769Z,71.86
2022-09-07T18:41:49.741Z,71.59
2022-09-07T18:47:06.366Z,71.69
2022-09-07T18:49:33.255Z,71.49
2022-09-07T18:54:47.785Z,71.57
2022-09-07T18:57:15.484Z,71.77
2022-09-07T18:59:43.117Z,71.62
2022-09-07T19:02:10.816Z,71.51
2022-09-07T19:07:29.824Z,71.57
2022-09-07T19:09:58.087Z,72.16
2022-09-07T19:12:25.123Z,72.51
2022-09-07T19:14:52.168Z,71.70
2022-09-07T19:17:19.808Z,71.87
2022-09-07T19:19:48.659Z,71.50
2022-09-07T19:22:15.777Z,72.00
2022-09-07T19:24:43.202Z,72.06
2022-09-07T19:27:10.475Z,72.10
2022-09-07T19:29:37.628Z,72.00
2022-09-07T19:32:05.238Z,72.12
2022-09-07T19:34:35.029Z,71.94
2022-09-07T19:37:03.792Z,72.33
2022-09-07T19:39:32.066Z,72.20
2022-09-07T19:41:59.389Z,72.60
2022-09-07T19:44:27.864Z,72.09
2022-09-07T19:46:55.413Z,72.15
2022-09-07T19:49:22.745Z,72.77
2022-09-07T19:51:51.857Z,72.58
2022-09-07T19:54:19.347Z,72.98
2022-09-07T19:56:46.439Z,72.87
2022-09-07T19:59:14.326Z,72.90
2022-09-07T20:01:45.960Z,72.65
2022-09-07T20:04:20.282Z,72.80
2022-09-07T20:06:50.371Z,72.65
2022-09-07T20:09:19.984Z,72.30
2022-09-07T20:11:47.936Z,72.98
2022-09-07T20:14:16.679Z,72.32
2022-09-07T20:16:44.415Z,72.32
2022-09-07T20:19:14.606Z,72.30
2022-09-07T20:21:42.507Z,72.57
2022-09-07T20:24:12.480Z,72.40
2022-09-07T20:26:39.542Z,72.57
2022-09-07T20:31:54.704Z,72.25
2022-09-07T20:34:21.838Z,72.80
2022-09-07T20:36:52.716Z,72.01
2022-09-07T20:39:23.365Z,72.55
2022-09-07T20:41:51.105Z,72.43
2022-09-07T20:44:18.449Z,72.34
2022-09-07T20:46:45.605Z,72.67
2022-09-07T20:49:12.640Z,72.71
2022-09-07T20:51:40.297Z,73.04
2022-09-07T20:54:07.425Z,72.63
2022-09-07T20:56:34.597Z,73.25
2022-09-07T20:59:02.832Z,72.63
2022-09-07T21:01:32.596Z,72.34
2022-09-07T21:04:01.002Z,72.61
2022-09-07T21:06:29.773Z,72.84
2022-09-07T21:08:57.719Z,72.30
2022-09-07T21:11:28.632Z,72.72
2022-09-07T21:14:06.240Z,72.93
2022-09-07T21:16:35.350Z,72.54
2022-09-07T21:19:05.015Z,72.98
2022-09-07T21:21:40.304Z,72.43
2022-09-07T21:24:21.187Z,72.77
2022-09-07T21:26:50.034Z,72.97
2022-09-07T21:29:22.373Z,72.94
2022-09-07T21:31:51.979Z,73.02
2022-09-07T21:34:19.203Z,72.88
2022-09-07T21:36:46.271Z,72.75
2022-09-07T21:39:14.976Z,72.38
2022-09-07T21:41:43.417Z,72.77
2022-09-07T21:44:16.284Z,72.42
2022-09-07T21:46:43.832Z,72.63
2022-09-07T21:49:11.430Z,72.90
2022-09-07T21:51:38.849Z,73.25
2022-09-07T21:54:06.422Z,72.69
2022-09-07T21:56:33.740Z,72.86
2022-09-07T21:59:02.472Z,73.09
2022-09-07T22:01:31.693Z,73.10
2022-09-07T22:04:04.914Z,73.02
2022-09-07T22:06:33.238Z,72.91
2022-09-07T22:09:01.981Z,73.00
2022-09-07T22:11:30.523Z,73.08
2022-09-07T22:14:01.847Z,73.00
2022-09-07T22:16:30.324Z,73.14
2022-09-07T22:18:57.575Z,72.88
2022-09-07T22:21:28.345Z,72.84
2022-09-07T22:23:58.993Z,72.86
2022-09-07T22:26:29.288Z,73.03
2022-09-07T22:28:56.692Z,72.79
2022-09-07T22:31:31.039Z,72.79
2022-09-07T22:34:00.714Z,73.07
2022-09-07T22:36:34.925Z,72.73
2022-09-07T22:39:10.207Z,73.24
2022-09-07T22:41:39.403Z,73.01
2022-09-07T22:44:10.809Z,73.14
2022-09-07T22:46:40.480Z,72.98
2022-09-07T22:49:08.882Z,73.07
2022-09-07T22:51:35.748Z,73.05
2022-09-07T22:54:02.959Z,73.61
2022-09-07T22:56:32.647Z,73.64
2022-09-07T22:59:03.937Z,73.23
2022-09-07T23:01:32.291Z,73.49
2022-09-07T23:04:01.012Z,73.58
2022-09-07T23:06:35.857Z,73.52
2022-09-07T23:09:16.177Z,73.67
2022-09-07T23:11:45.317Z,73.47
2022-09-07T23:14:19.466Z,73.62
2022-09-07T23:16:47.300Z,74.08
2022-09-07T23:19:16.785Z,73.63
2022-09-07T23:21:44.597Z,73.93
2022-09-07T23:24:15.205Z,73.79
2022-09-07T23:26:42.803Z,73.66
2022-09-07T23:29:14.631Z,73.74
2022-09-07T23:31:42.560Z,74.32
2022-09-07T23:34:10.152Z,74.40
2022-09-07T23:36:37.696Z,74.01
2022-09-07T23:39:05.120Z,74.38
2022-09-07T23:41:32.283Z,74.30
2022-09-07T23:43:59.247Z,74.29
2022-09-07T23:46:26.542Z,74.53
2022-09-07T23:48:53.849Z,74.56
2022-09-07T23:51:24.303Z,74.60
2022-09-07T23:53:52.637Z,74.62
2022-09-07T23:56:20.112Z,74.76
2022-09-07T23:58:47.076Z,74.85
